createdAt,value
2018-02-27T00:01:30.390Z,-8.29
2018-02-27T00:04:01.825Z,-8.53
2018-02-27T00:06:33.913Z,-8.89
2018-02-27T00:09:06.537Z,-9.40
2018-02-27T00:11:37.700Z,-9.77
2018-02-27T00:14:09.125Z,-9.26
2018-02-27T00:16:41.710Z,-9.65
2018-02-27T00:19:13.709Z,-9.89
2018-02-27T00:21:45.804Z,-9.74
2018-02-27T00:24:18.116Z,-9.25
2018-02-27T00:26:50.084Z,-9.65
2018-02-27T00:29:21.676Z,-9.57
2018-02-27T00:31:53.040Z,-10.18
2018-02-27T00:34:24.814Z,-9.68
2018-02-27T00:36:57.480Z,-10.06
2018-02-27T00:39:30.795Z,-10.02
2018-02-27T00:42:01.909Z,-10.01
2018-02-27T00:44:33.719Z,-9.32
2018-02-27T00:47:05.568Z,-9.55
2018-02-27T00:49:37.456Z,-9.80
2018-02-27T00:52:08.969Z,-10.01
2018-02-27T00:54:40.078Z,-9.96
2018-02-27T00:57:12.349Z,-9.79
2018-02-27T00:59:43.738Z,-9.52
2018-02-27T01:02:15.220Z,-9.93
2018-02-27T01:04:46.912Z,-9.89
2018-02-27T01:07:18.806Z,-9.81
2018-02-27T01:09:50.553Z,-9.77
2018-02-27T01:12:22.137Z,-9.74
2018-02-27T01:14:54.292Z,-9.31
2018-02-27T01:17:25.925Z,-10.15
2018-02-27T01:19:58.896Z,-10.10
2018-02-27T01:22:30.413Z,-10.03
2018-02-27T01:25:02.226Z,-10.03
2018-02-27T01:27:33.988Z,-9.50
2018-02-27T01:30:05.881Z,-9.08
2018-02-27T01:32:37.493Z,-9.58
2018-02-27T01:35:09.145Z,-10.14
2018-02-27T01:37:40.480Z,-10.07
2018-02-27T01:40:12.336Z,-10.34
2018-02-27T01:42:44.112Z,-10.85
2018-02-27T01:45:16.126Z,-10.73
2018-02-27T01:47:47.650Z,-10.45
2018-02-27T01:50:19.472Z,-10.91
2018-02-27T01:52:51.326Z,-10.40
2018-02-27T01:55:23.638Z,-10.39
2018-02-27T01:57:54.994Z,-10.97
2018-02-27T02:00:26.537Z,-11.00
2018-02-27T02:02:58.717Z,-10.33
2018-02-27T02:05:30.769Z,-10.61
2018-02-27T02:08:02.393Z,-10.58
2018-02-27T02:10:34.253Z,-11.03
2018-02-27T02:13:06.060Z,-10.32
2018-02-27T02:15:37.943Z,-10.70
2018-02-27T02:18:09.698Z,-10.65
2018-02-27T02:20:41.508Z,-10.63
2018-02-27T02:23:13.120Z,-10.85
2018-02-27T02:25:44.914Z,-11.09
2018-02-27T02:28:16.524Z,-11.63
2018-02-27T02:30:47.912Z,-11.23
2018-02-27T02:33:19.329Z,-11.20
2018-02-27T02:35:50.834Z,-11.65
2018-02-27T02:38:22.455Z,-11.75
2018-02-27T02:40:54.012Z,-11.22
2018-02-27T02:43:25.777Z,-11.65
2018-02-27T02:45:58.525Z,-11.43
2018-02-27T02:48:30.182Z,-11.26
2018-02-27T02:51:01.967Z,-11.43
2018-02-27T02:53:33.981Z,-10.70
2018-02-27T02:56:05.047Z,-11.16
2018-02-27T02:58:36.523Z,-11.09
2018-02-27T03:01:08.593Z,-11.38
2018-02-27T03:03:40.989Z,-10.84
2018-02-27T03:06:12.433Z,-11.26
2018-02-27T03:08:44.325Z,-11.20
2018-02-27T03:11:16.185Z,-10.77
2018-02-27T03:13:47.405Z,-10.20
2018-02-27T03:16:19.170Z,-10.25
2018-02-27T03:18:51.449Z,-10.13
2018-02-27T03:21:23.313Z,-10.16
2018-02-27T03:23:54.710Z,-10.17
2018-02-27T03:26:26.513Z,-10.85
2018-02-27T03:28:58.656Z,-11.18
2018-02-27T03:31:30.446Z,-11.07
2018-02-27T03:34:01.580Z,-10.95
2018-02-27T03:36:33.294Z,-10.97
2018-02-27T03:39:05.635Z,-10.56
2018-02-27T03:41:37.077Z,-10.92
2018-02-27T03:44:08.181Z,-10.92
2018-02-27T03:46:39.931Z,-11.00
2018-02-27T03:49:11.828Z,-10.68
2018-02-27T03:51:43.144Z,-10.59
2018-02-27T03:54:14.667Z,-10.79
2018-02-27T03:56:46.437Z,-11.00
2018-02-27T03:59:18.055Z,-11.05
2018-02-27T04:01:50.073Z,-10.81
2018-02-27T04:04:22.462Z,-11.06
2018-02-27T04:06:54.017Z,-10.91
2018-02-27T04:09:26.139Z,-10.83
2018-02-27T04:11:58.792Z,-11.01
2018-02-27T04:14:30.297Z,-10.73
2018-02-27T04:17:03.641Z,-10.76
2018-02-27T04:19:35.749Z,-10.73
2018-02-27T04:22:07.429Z,-10.74
2018-02-27T04:24:38.997Z,-10.88
2018-02-27T04:27:10.564Z,-11.04
2018-02-27T04:29:41.913Z,-11.05
2018-02-27T04:32:13.585Z,-11.31
2018-02-27T04:34:45.053Z,-11.47
2018-02-27T04:37:16.642Z,-11.57
2018-02-27T04:39:48.523Z,-11.59
2018-02-27T04:42:20.330Z,-12.16
2018-02-27T04:44:51.791Z,-12.24
2018-02-27T04:47:23.982Z,-11.84
2018-02-27T04:49:55.531Z,-11.47
2018-02-27T04:52:27.121Z,-11.37
2018-02-27T04:54:59.118Z,-12.05
2018-02-27T04:57:31.034Z,-11.68
2018-02-27T05:00:03.518Z,-11.85
2018-02-27T05:02:35.385Z,-11.63
2018-02-27T05:05:07.582Z,-11.59
2018-02-27T05:07:39.248Z,-11.60
2018-02-27T05:10:11.101Z,-11.33
2018-02-27T05:12:43.367Z,-11.32
2018-02-27T05:15:15.317Z,-11.37
2018-02-27T05:17:47.214Z,-11.43
2018-02-27T05:20:18.941Z,-11.47
2018-02-27T05:22:50.739Z,-12.31
2018-02-27T05:25:22.721Z,-12.54
2018-02-27T05:27:54.549Z,-12.59
2018-02-27T05:30:26.537Z,-12.63
2018-02-27T05:32:58.976Z,-12.19
2018-02-27T05:35:30.629Z,-12.02
2018-02-27T05:38:03.361Z,-11.93
2018-02-27T05:40:34.453Z,-11.58
2018-02-27T05:43:06.053Z,-11.86
2018-02-27T05:45:38.340Z,-11.87
2018-02-27T05:48:10.455Z,-11.74
2018-02-27T05:50:42.249Z,-11.68
2018-02-27T05:53:13.378Z,-11.57
2018-02-27T05:55:44.525Z,-11.72
2018-02-27T05:58:16.185Z,-11.53
2018-02-27T06:00:48.740Z,-11.55
2018-02-27T06:03:19.925Z,-11.42
2018-02-27T06:05:51.262Z,-11.43
2018-02-27T06:08:22.367Z,-11.45
2018-02-27T06:10:54.039Z,-11.27
2018-02-27T06:13:25.180Z,-11.45
2018-02-27T06:15:56.289Z,-11.60
2018-02-27T06:18:27.930Z,-11.82
2018-02-27T06:21:00.074Z,-11.60
2018-02-27T06:23:31.771Z,-11.53
2018-02-27T06:26:03.921Z,-11.51
2018-02-27T06:28:35.215Z,-11.75
2018-02-27T06:31:06.900Z,-11.72
2018-02-27T06:33:37.990Z,-12.72
2018-02-27T06:36:09.109Z,-12.53
2018-02-27T06:38:40.886Z,-12.43
2018-02-27T06:41:12.697Z,-12.55
2018-02-27T06:43:44.105Z,-12.59
2018-02-27T06:46:15.741Z,-12.77
2018-02-27T06:48:46.889Z,-12.73
2018-02-27T06:51:18.036Z,-12.74
2018-02-27T06:53:49.513Z,-12.72
2018-02-27T06:56:21.005Z,-12.81
2018-02-27T06:58:52.674Z,-12.85
2018-02-27T07:01:23.827Z,-12.97
2018-02-27T07:03:55.445Z,-12.48
2018-02-27T07:06:27.090Z,-12.67
2018-02-27T07:08:58.838Z,-12.51
2018-02-27T07:11:30.069Z,-12.66
2018-02-27T07:14:03.120Z,-12.47
2018-02-27T07:16:34.759Z,-12.45
2018-02-27T07:19:05.917Z,-12.27
2018-02-27T07:21:37.290Z,-12.12
2018-02-27T07:24:08.918Z,-12.12
2018-02-27T07:26:39.977Z,-12.01
2018-02-27T07:29:12.214Z,-11.64
2018-02-27T07:31:43.805Z,-11.70
2018-02-27T07:34:15.444Z,-11.77
2018-02-27T07:36:47.254Z,-10.91
2018-02-27T07:39:18.996Z,-10.70
2018-02-27T07:41:51.197Z,-11.14
2018-02-27T07:44:22.500Z,-10.81
2018-02-27T07:46:53.606Z,-11.05
2018-02-27T07:49:24.936Z,-11.14
2018-02-27T07:51:56.636Z,-11.10
2018-02-27T07:54:28.129Z,-10.66
2018-02-27T07:56:59.291Z,-10.90
2018-02-27T07:59:30.425Z,-11.07
2018-02-27T08:02:03.466Z,-10.94
2018-02-27T08:04:34.550Z,-10.94
2018-02-27T08:07:06.584Z,-10.60
2018-02-27T08:09:38.665Z,-10.14
2018-02-27T08:12:10.545Z,-9.97
2018-02-27T08:14:41.950Z,-10.65
2018-02-27T08:17:13.130Z,-10.64
2018-02-27T08:19:44.828Z,-10.04
2018-02-27T08:22:16.674Z,-9.75
2018-02-27T08:24:47.726Z,-9.56
2018-02-27T08:27:19.285Z,-9.46
2018-02-27T08:29:51.364Z,-10.14
2018-02-27T08:32:22.585Z,-10.11
2018-02-27T08:34:54.057Z,-9.52
2018-02-27T08:37:25.135Z,-9.83
2018-02-27T08:39:57.236Z,-9.80
2018-02-27T08:42:28.654Z,-9.75
2018-02-27T08:45:01.514Z,-9.32
2018-02-27T08:47:32.852Z,-8.90
2018-02-27T08:50:04.422Z,-9.11
2018-02-27T08:52:35.949Z,-9.25
2018-02-27T08:55:07.889Z,-9.61
2018-02-27T08:57:39.029Z,-9.26
2018-02-27T09:00:10.153Z,-9.14
2018-02-27T09:02:41.636Z,-8.89
2018-02-27T09:05:13.131Z,-9.05
2018-02-27T09:07:44.510Z,-8.82
2018-02-27T09:10:16.656Z,-8.51
2018-02-27T09:12:48.332Z,-8.71
2018-02-27T09:15:19.956Z,-8.69
2018-02-27T09:17:51.628Z,-8.70
2018-02-27T09:20:23.242Z,-8.47
2018-02-27T09:22:55.197Z,-8.16
2018-02-27T09:25:26.319Z,-8.06
2018-02-27T09:27:59.129Z,-8.38
2018-02-27T09:30:30.878Z,-8.09
2018-02-27T09:33:03.071Z,-8.22
2018-02-27T09:35:34.602Z,-7.98
2018-02-27T09:38:05.763Z,-7.71
2018-02-27T09:40:36.860Z,-8.39
2018-02-27T09:43:08.438Z,-8.48
2018-02-27T09:45:39.837Z,-8.20
2018-02-27T09:48:11.007Z,-7.90
2018-02-27T09:50:42.436Z,-8.06
2018-02-27T09:53:14.194Z,-7.77
2018-02-27T09:55:46.557Z,-8.27
2018-02-27T09:58:18.069Z,-8.40
2018-02-27T10:00:50.286Z,-8.12
2018-02-27T10:03:21.460Z,-7.68
2018-02-27T10:05:52.918Z,-7.71
2018-02-27T10:08:24.701Z,-7.92
2018-02-27T10:10:55.893Z,-7.19
2018-02-27T10:13:27.678Z,-7.32
2018-02-27T10:15:58.885Z,-7.08
2018-02-27T10:18:30.079Z,-6.97
2018-02-27T10:21:03.571Z,-7.17
2018-02-27T10:23:34.678Z,-6.90
2018-02-27T10:26:05.887Z,-6.75
2018-02-27T10:28:37.142Z,-7.08
2018-02-27T10:31:08.306Z,-7.34
2018-02-27T10:33:40.003Z,-7.17
2018-02-27T10:36:11.200Z,-6.74
2018-02-27T10:38:42.363Z,-6.42
2018-02-27T10:41:14.374Z,-6.89
2018-02-27T10:43:45.569Z,-6.51
2018-02-27T10:46:16.888Z,-6.34
2018-02-27T10:48:48.002Z,-5.83
2018-02-27T10:51:19.202Z,-5.93
2018-02-27T10:53:50.632Z,-6.03
2018-02-27T10:56:22.709Z,-5.58
2018-02-27T10:58:53.885Z,-5.85
2018-02-27T11:01:25.801Z,-5.77
2018-02-27T11:03:59.038Z,-5.25
2018-02-27T11:06:30.543Z,-5.27
2018-02-27T11:09:01.765Z,-5.22
2018-02-27T11:11:34.583Z,-4.98
2018-02-27T11:14:06.507Z,-5.15
2018-02-27T11:16:37.987Z,-4.89
2018-02-27T11:19:10.367Z,-5.82
2018-02-27T11:21:41.483Z,-5.05
2018-02-27T11:24:12.933Z,-4.74
2018-02-27T11:26:44.119Z,-5.52
2018-02-27T11:29:15.242Z,-5.11
2018-02-27T11:31:46.702Z,-4.55
2018-02-27T11:34:18.249Z,-4.94
2018-02-27T11:36:49.412Z,-4.70
2018-02-27T11:39:21.101Z,-5.09
2018-02-27T11:41:52.869Z,-5.03
2018-02-27T11:44:24.891Z,-4.38
2018-02-27T11:46:56.018Z,-4.49
2018-02-27T11:49:27.141Z,-4.67
2018-02-27T11:52:00.468Z,-4.53
2018-02-27T11:54:31.987Z,-4.30
2018-02-27T11:57:05.098Z,-4.77
2018-02-27T11:59:36.589Z,-4.77
2018-02-27T12:02:07.755Z,-4.02
2018-02-27T12:04:39.073Z,-4.42
2018-02-27T12:07:12.662Z,-3.99
2018-02-27T12:09:43.849Z,-3.81
2018-02-27T12:12:15.007Z,-4.50
2018-02-27T12:14:46.839Z,-4.68
2018-02-27T12:17:18.065Z,-4.21
2018-02-27T12:19:49.181Z,-3.68
2018-02-27T12:22:20.597Z,-3.38
2018-02-27T12:24:52.636Z,-3.41
2018-02-27T12:27:23.733Z,-4.45
2018-02-27T12:29:55.322Z,-3.79
2018-02-27T12:32:27.023Z,-3.48
2018-02-27T12:35:01.287Z,-4.16
2018-02-27T12:37:32.091Z,-3.82
2018-02-27T12:40:03.156Z,-3.88
2018-02-27T12:42:34.213Z,-4.16
2018-02-27T12:45:05.505Z,-4.22
2018-02-27T12:47:36.664Z,-3.79
2018-02-27T12:50:07.347Z,-3.65
2018-02-27T12:52:38.541Z,-3.00
2018-02-27T12:55:11.093Z,-3.71
2018-02-27T12:57:42.829Z,-3.90
2018-02-27T13:00:13.743Z,-3.46
2018-02-27T13:02:45.140Z,-4.07
2018-02-27T13:05:15.974Z,-3.73
2018-02-27T13:07:47.142Z,-3.06
2018-02-27T13:10:19.050Z,-3.88
2018-02-27T13:12:49.934Z,-3.82
2018-02-27T13:15:21.153Z,-3.74
2018-02-27T13:18:25.686Z,-3.94
2018-02-27T13:21:13.346Z,-3.77
2018-02-27T13:23:44.656Z,-3.22
2018-02-27T13:26:16.010Z,-3.29
2018-02-27T13:28:47.117Z,-3.69
2018-02-27T13:31:17.937Z,-3.47
2018-02-27T13:33:49.405Z,-3.82
2018-02-27T13:36:20.541Z,-3.96
2018-02-27T13:38:51.741Z,-3.57
2018-02-27T13:41:24.827Z,-4.02
2018-02-27T13:43:55.941Z,-3.82
2018-02-27T13:46:27.418Z,-3.64
2018-02-27T13:49:04.001Z,-3.82
2018-02-27T13:51:30.990Z,-3.48
2018-02-27T13:54:02.793Z,-3.43
2018-02-27T13:56:33.958Z,-3.33
2018-02-27T13:59:05.445Z,-3.42
2018-02-27T14:01:36.555Z,-4.12
2018-02-27T14:04:07.689Z,-4.35
2018-02-27T14:06:39.125Z,-4.22
2018-02-27T14:09:10.228Z,-3.62
2018-02-27T14:11:41.843Z,-3.84
2018-02-27T14:14:14.612Z,-3.82
2018-02-27T14:16:46.146Z,-3.51
2018-02-27T14:19:18.312Z,-3.64
2018-02-27T14:21:49.446Z,-3.82
2018-02-27T14:24:20.967Z,-3.69
2018-02-27T14:26:52.009Z,-4.11
2018-02-27T14:29:23.120Z,-4.08
2018-02-27T14:31:54.302Z,-3.99
2018-02-27T14:34:25.801Z,-3.87
2018-02-27T14:36:57.092Z,-4.28
2018-02-27T14:39:28.277Z,-4.07
2018-02-27T14:41:59.329Z,-3.78
2018-02-27T14:44:30.393Z,-3.65
2018-02-27T14:47:01.518Z,-3.85
2018-02-27T14:49:32.633Z,-3.66
2018-02-27T14:52:04.101Z,-3.78
2018-02-27T14:54:38.877Z,-3.77
2018-02-27T14:57:09.994Z,-3.91
2018-02-27T14:59:41.181Z,-3.85
2018-02-27T15:02:13.416Z,-3.83
2018-02-27T15:04:44.550Z,-4.06
2018-02-27T15:07:16.818Z,-3.76
2018-02-27T15:09:48.181Z,-3.87
2018-02-27T15:12:19.486Z,-4.03
2018-02-27T15:14:51.050Z,-3.86
2018-02-27T15:17:23.185Z,-3.98
2018-02-27T15:19:55.261Z,-4.14
2018-02-27T15:22:26.887Z,-4.32
2018-02-27T15:24:57.969Z,-4.10
2018-02-27T15:27:29.187Z,-4.12
2018-02-27T15:30:00.644Z,-3.96
2018-02-27T15:32:31.780Z,-3.98
2018-02-27T15:35:03.005Z,-3.99
2018-02-27T15:37:35.391Z,-4.30
2018-02-27T15:40:07.674Z,-4.09
2018-02-27T15:42:39.383Z,-4.42
2018-02-27T15:45:10.589Z,-4.09
2018-02-27T15:47:41.669Z,-4.25
2018-02-27T15:50:14.178Z,-4.37
2018-02-27T15:52:45.321Z,-4.45
2018-02-27T15:55:16.877Z,-4.44
2018-02-27T15:57:48.237Z,-4.41
2018-02-27T16:00:19.378Z,-4.53
2018-02-27T16:02:50.829Z,-4.59
2018-02-27T16:05:21.912Z,-4.82
2018-02-27T16:07:53.081Z,-4.51
2018-02-27T16:10:24.505Z,-4.69
2018-02-27T16:12:55.558Z,-4.52
2018-02-27T16:15:26.723Z,-4.72
2018-02-27T16:17:58.101Z,-4.61
2018-02-27T16:20:29.200Z,-4.84
2018-02-27T16:23:00.656Z,-4.74
2018-02-27T16:25:31.742Z,-4.87
2018-02-27T16:28:02.835Z,-4.93
2018-02-27T16:30:34.263Z,-4.97
2018-02-27T16:33:05.476Z,-4.50
2018-02-27T16:35:36.593Z,-5.13
2018-02-27T16:38:08.015Z,-5.25
2018-02-27T16:40:39.082Z,-5.32
2018-02-27T16:43:10.183Z,-5.08
2018-02-27T16:45:41.262Z,-5.46
2018-02-27T16:48:12.673Z,-5.12
2018-02-27T16:50:43.863Z,-5.35
2018-02-27T16:53:15.009Z,-5.16
2018-02-27T16:55:46.489Z,-5.37
2018-02-27T16:58:17.556Z,-5.36
2018-02-27T17:00:49.915Z,-5.72
2018-02-27T17:03:21.309Z,-5.37
2018-02-27T17:05:53.382Z,-5.68
2018-02-27T17:08:25.559Z,-5.70
2018-02-27T17:10:56.674Z,-5.41
2018-02-27T17:13:27.817Z,-5.63
2018-02-27T17:15:59.267Z,-5.73
2018-02-27T17:18:30.424Z,-6.08
2018-02-27T17:21:01.576Z,-5.68
2018-02-27T17:23:32.994Z,-5.86
2018-02-27T17:26:04.077Z,-5.67
2018-02-27T17:28:36.165Z,-5.93
2018-02-27T17:31:09.574Z,-5.75
2018-02-27T17:33:40.616Z,-6.19
2018-02-27T17:36:12.021Z,-6.24
2018-02-27T17:38:43.158Z,-6.42
2018-02-27T17:41:14.304Z,-6.51
2018-02-27T17:43:45.783Z,-6.38
2018-02-27T17:46:17.391Z,-6.35
2018-02-27T17:48:48.747Z,-6.25
2018-02-27T17:51:19.822Z,-6.18
2018-02-27T17:53:50.937Z,-5.92
2018-02-27T17:56:22.411Z,-6.41
2018-02-27T17:58:53.585Z,-6.75
2018-02-27T18:01:24.714Z,-6.49
2018-02-27T18:03:56.223Z,-6.14
2018-02-27T18:06:27.564Z,-6.45
2018-02-27T18:08:59.198Z,-6.79
2018-02-27T18:11:30.921Z,-6.87
2018-02-27T18:14:03.034Z,-6.97
2018-02-27T18:16:34.169Z,-6.40
2018-02-27T18:19:05.296Z,-6.33
2018-02-27T18:21:36.756Z,-6.38
2018-02-27T18:24:07.844Z,-6.55
2018-02-27T18:26:39.590Z,-6.49
2018-02-27T18:29:12.181Z,-6.70
2018-02-27T18:31:43.318Z,-6.84
2018-02-27T18:34:14.424Z,-7.11
2018-02-27T18:36:46.616Z,-6.99
2018-02-27T18:39:18.062Z,-6.86
2018-02-27T18:41:49.647Z,-7.30
2018-02-27T18:44:21.067Z,-7.21
2018-02-27T18:46:52.231Z,-7.41
2018-02-27T18:49:23.658Z,-7.01
2018-02-27T18:51:54.832Z,-7.21
2018-02-27T18:54:25.989Z,-7.28
2018-02-27T18:56:57.387Z,-7.08
2018-02-27T18:59:28.496Z,-7.22
2018-02-27T19:02:01.353Z,-7.08
2018-02-27T19:04:32.793Z,-7.05
2018-02-27T19:07:03.928Z,-7.18
2018-02-27T19:09:35.330Z,-6.90
2018-02-27T19:12:07.302Z,-7.53
2018-02-27T19:14:38.358Z,-7.01
2018-02-27T19:17:09.902Z,-7.25
2018-02-27T19:19:41.031Z,-7.37
2018-02-27T19:22:12.149Z,-7.36
2018-02-27T19:24:44.479Z,-7.13
2018-02-27T19:27:15.640Z,-7.18
2018-02-27T19:29:47.063Z,-7.75
2018-02-27T19:32:18.229Z,-8.01
2018-02-27T19:34:49.264Z,-8.34
2018-02-27T19:37:21.762Z,-7.91
2018-02-27T19:39:52.930Z,-7.66
2018-02-27T19:42:24.050Z,-8.10
2018-02-27T19:44:55.497Z,-7.43
2018-02-27T19:47:26.658Z,-7.69
2018-02-27T19:49:57.805Z,-7.88
2018-02-27T19:52:29.238Z,-7.78
2018-02-27T19:55:00.304Z,-7.76
2018-02-27T19:57:31.498Z,-7.40
2018-02-27T20:00:02.887Z,-7.36
2018-02-27T20:02:34.772Z,-7.63
2018-02-27T20:05:05.932Z,-7.55
2018-02-27T20:07:37.385Z,-7.67
2018-02-27T20:10:09.738Z,-7.74
2018-02-27T20:12:41.275Z,-7.49
2018-02-27T20:15:12.556Z,-7.80
2018-02-27T20:17:47.898Z,-7.55
2018-02-27T20:20:20.147Z,-7.77
2018-02-27T20:22:55.029Z,-7.75
2018-02-27T20:25:40.473Z,-7.45
2018-02-27T20:28:12.129Z,-7.63
2018-02-27T20:30:43.458Z,-7.70
2018-02-27T20:33:14.867Z,-7.79
2018-02-27T20:35:45.934Z,-7.88
2018-02-27T20:38:17.454Z,-7.66
2018-02-27T20:40:49.518Z,-8.02
2018-02-27T20:43:20.754Z,-7.68
2018-02-27T20:45:52.054Z,-7.94
2018-02-27T20:48:23.277Z,-7.91
2018-02-27T20:50:54.706Z,-8.03
2018-02-27T20:53:27.029Z,-7.99
2018-02-27T20:55:58.237Z,-8.16
2018-02-27T20:58:29.775Z,-7.99
2018-02-27T21:01:01.134Z,-8.00
2018-02-27T21:03:32.246Z,-8.11
2018-02-27T21:06:03.825Z,-8.03
2018-02-27T21:08:35.243Z,-8.35
2018-02-27T21:11:06.404Z,-8.37
2018-02-27T21:13:38.342Z,-8.09
2018-02-27T21:16:09.531Z,-7.97
2018-02-27T21:18:41.021Z,-7.89
2018-02-27T21:21:12.512Z,-7.73
2018-02-27T21:23:43.662Z,-7.78
2018-02-27T21:26:14.834Z,-7.67
2018-02-27T21:28:47.287Z,-7.68
2018-02-27T21:31:18.410Z,-7.93
2018-02-27T21:33:49.753Z,-7.84
2018-02-27T21:36:20.846Z,-8.12
2018-02-27T21:38:52.035Z,-8.07
2018-02-27T21:41:23.678Z,-8.06
2018-02-27T21:43:57.781Z,-8.04
2018-02-27T21:46:28.861Z,-8.10
2018-02-27T21:49:00.398Z,-7.99
2018-02-27T21:51:32.391Z,-7.99
2018-02-27T21:54:03.565Z,-8.05
2018-02-27T21:56:39.837Z,-7.92
2018-02-27T21:59:10.979Z,-8.23
2018-02-27T22:01:42.398Z,-8.42
2018-02-27T22:04:13.538Z,-8.41
2018-02-27T22:06:44.846Z,-8.42
2018-02-27T22:09:16.873Z,-8.63
2018-02-27T22:11:48.649Z,-8.88
2018-02-27T22:14:19.994Z,-9.59
2018-02-27T22:16:52.261Z,-9.23
2018-02-27T22:19:23.986Z,-9.48
2018-02-27T22:21:55.889Z,-9.42
2018-02-27T22:24:27.755Z,-9.22
2018-02-27T22:26:59.520Z,-9.23
2018-02-27T22:29:31.021Z,-9.13
2018-02-27T22:32:02.907Z,-9.57
2018-02-27T22:34:35.099Z,-9.63
2018-02-27T22:37:06.302Z,-9.15
2018-02-27T22:39:37.820Z,-8.80
2018-02-27T22:42:08.940Z,-9.01
2018-02-27T22:44:40.102Z,-9.52
2018-02-27T22:47:12.000Z,-9.77
2018-02-27T22:49:43.112Z,-9.72
2018-02-27T22:52:14.218Z,-9.17
2018-02-27T22:54:46.264Z,-8.91
2018-02-27T22:57:18.023Z,-9.01
2018-02-27T22:59:49.445Z,-8.73
2018-02-27T23:02:21.119Z,-8.97
2018-02-27T23:04:52.269Z,-9.06
2018-02-27T23:07:24.229Z,-8.63
2018-02-27T23:09:55.772Z,-8.42
2018-02-27T23:12:26.960Z,-8.44
2018-02-27T23:14:59.462Z,-8.39
2018-02-27T23:17:33.821Z,-8.68
2018-02-27T23:20:05.639Z,-9.06
2018-02-27T23:22:37.394Z,-9.23
2018-02-27T23:25:40.449Z,-9.61
2018-02-27T23:28:17.388Z,-9.52
2018-02-27T23:30:49.509Z,-9.94
2018-02-27T23:33:34.826Z,-9.41
2018-02-27T23:36:06.425Z,-9.99
2018-02-27T23:38:38.333Z,-10.28
2018-02-27T23:41:09.677Z,-10.62
2018-02-27T23:43:40.766Z,-10.83
2018-02-27T23:46:12.460Z,-10.84
2018-02-27T23:48:45.278Z,-10.35
2018-02-27T23:51:17.186Z,-10.25
2018-02-27T23:53:48.589Z,-10.67
2018-02-27T23:56:23.818Z,-10.74
2018-02-27T23:58:55.930Z,-10.91
